臺中航空站 - ATIS

SPECI RCMQ 231928Z 00000KT 3200 BR FEW010 15/14 Q1020 RMK A3014=

站台狀態:Online
最後更新:2020-02-24 03:30:02